Time;durP1;ratioP1;P1;durP2;ratioP2;P2;SDS_P1;SDS_P2;PMS_P1;PMS_P2;Temp;Humidity;BMP_temperature;BMP_pressure;BME280_temperature;BME280_humidity;BME280_pressure;Samples;Min_cycle;Max_cycle;Signal;HPM_P1;HPM_P2
2023/04/23 07:22:26;;;;;;;11.50;9.60;;;;;;;-145.79;85.39;77211.94;5312725;27;1255171;-78
2023/04/23 07:24:58;;;;;;;12.13;8.10;;;;;;;-145.79;84.98;77205.59;5342424;27;20032;-78
2023/04/23 07:27:32;;;;;;;8.73;7.43;;;;;;;-145.79;84.29;77199.22;5338277;27;20127;-78
2023/04/23 07:30:04;;;;;;;10.52;6.82;;;;;;;-145.79;84.18;77190.75;5332336;28;20019;-79
2023/04/23 07:32:36;;;;;;;9.27;7.72;;;;;;;-145.79;84.11;77180.16;5325645;28;20078;-78
2023/04/23 07:35:09;;;;;;;7.97;6.95;;;;;;;-145.79;84.02;77165.31;5342626;27;20035;-78
2023/04/23 07:37:40;;;;;;;10.10;7.10;;;;;;;-145.79;82.82;77158.97;5342568;27;20020;-79
2023/04/23 07:40:11;;;;;;;10.13;6.72;;;;;;;-145.79;83.16;77146.25;5342889;28;20030;-78
2023/04/23 07:42:43;;;;;;;9.05;5.93;;;;;;;-145.79;83.20;77137.75;5341517;27;20213;-78
2023/04/23 07:45:14;;;;;;;8.25;5.88;;;;;;;-145.79;82.63;77131.41;5340122;27;20028;-78
2023/04/23 07:47:49;;;;;;;10.88;5.30;;;;;;;-145.79;82.10;77127.16;5321438;28;20467;-78
2023/04/23 07:50:20;;;;;;;9.35;5.80;;;;;;;-145.79;81.26;77110.22;5340913;28;20028;-78
2023/04/23 07:52:51;;;;;;;10.32;5.95;;;;;;;-145.79;81.61;77105.97;5343153;28;20035;-78
2023/04/23 07:55:23;;;;;;;9.00;5.70;;;;;;;-145.79;80.62;77095.38;5342646;28;20031;-78
2023/04/23 07:57:54;;;;;;;8.98;6.00;;;;;;;-145.79;80.62;77093.25;5341900;27;20070;-77
2023/04/23 08:00:25;;;;;;;9.55;5.85;;;;;;;-145.79;80.08;77089.00;5341976;27;20110;-78
2023/04/23 08:02:57;;;;;;;8.20;5.20;;;;;;;-145.79;79.22;77074.19;5341238;27;20032;-77
2023/04/23 08:05:29;;;;;;;10.48;4.50;;;;;;;-145.79;78.96;77057.22;5342950;27;20019;-78
2023/04/23 08:08:00;;;;;;;10.40;4.80;;;;;;;-145.79;78.80;77046.63;5342268;27;20020;-78
2023/04/23 08:10:31;;;;;;;9.60;5.10;;;;;;;-145.79;79.05;77044.50;5340898;27;20039;-78
2023/04/23 08:13:03;;;;;;;7.75;4.25;;;;;;;-145.79;78.43;77029.66;5342743;28;20403;-78
2023/04/23 08:15:34;;;;;;;10.27;5.30;;;;;;;-145.79;77.61;77033.91;5341551;28;20087;-78
2023/04/23 08:18:06;;;;;;;10.60;4.72;;;;;;;-145.79;77.49;77029.66;5344340;27;20029;-77
2023/04/23 08:20:37;;;;;;;7.20;5.60;;;;;;;-145.79;78.25;77014.84;5347047;28;20031;-77
2023/04/23 08:23:08;;;;;;;7.93;5.18;;;;;;;-145.79;78.25;77000.00;5346325;28;20045;-78
2023/04/23 08:25:40;;;;;;;6.65;4.78;;;;;;;-145.79;76.78;77000.00;5341409;28;20028;-78
2023/04/23 08:28:11;;;;;;;8.10;4.78;;;;;;;-145.79;76.86;76991.53;5342199;28;20404;-75
2023/04/23 08:30:42;;;;;;;6.47;4.43;;;;;;;-145.79;77.01;76978.81;5322572;27;20024;-75
2023/04/23 08:33:14;;;;;;;8.10;4.38;;;;;;;-145.79;76.19;76970.31;5306897;28;20110;-75
2023/04/23 08:35:45;;;;;;;8.50;4.22;;;;;;;-145.79;75.89;76963.97;5311860;28;20023;-76
2023/04/23 08:38:16;;;;;;;7.53;3.92;;;;;;;-145.79;75.34;76961.84;5323029;28;20120;-76
2023/04/23 08:40:52;;;;;;;6.70;3.97;;;;;;;-145.79;74.47;76951.25;5324448;28;20402;-75
2023/04/23 08:43:30;;;;;;;;;;;;;;;-145.79;73.62;76936.41;5325568;28;20031;-75
2023/04/23 08:46:05;;;;;;;13.55;5.47;;;;;;;-145.79;73.29;76930.06;5324232;28;19916;-76
2023/04/23 08:48:38;;;;;;;5.85;3.72;;;;;;;-145.79;72.08;76910.97;5323078;28;20475;-75
2023/04/23 08:51:12;;;;;;;9.13;5.28;;;;;;;-145.79;72.70;76900.38;5326947;28;20077;-75
2023/04/23 08:53:52;;;;;;;6.95;3.70;;;;;;;-145.79;71.03;76894.03;5325345;28;20089;-75
2023/04/23 08:56:25;;;;;;;6.55;3.28;;;;;;;-145.79;69.90;76896.16;5326558;28;20034;-75
2023/04/23 08:58:57;;;;;;;5.68;2.90;;;;;;;-145.79;70.58;76885.56;5326161;28;20016;-75
2023/04/23 09:01:29;;;;;;;7.00;2.90;;;;;;;-145.79;69.06;76872.84;5319494;28;20059;-77
2023/04/23 09:04:01;;;;;;;9.25;4.40;;;;;;;-145.79;68.04;76868.59;5306125;28;20028;-77
2023/04/23 09:06:33;;;;;;;8.10;2.75;;;;;;;-145.79;67.50;76874.94;5311098;28;20339;-77
2023/04/23 09:09:06;;;;;;;6.18;2.30;;;;;;;-145.79;66.92;76866.47;5326288;28;20069;-76
2023/04/23 09:11:37;;;;;;;6.05;3.50;;;;;;;-145.79;67.44;76866.47;5314014;28;20032;-76
2023/04/23 09:14:11;;;;;;;7.68;2.75;;;;;;;-145.79;66.70;76851.63;5305336;28;20028;-76
2023/04/23 09:16:43;;;;;;;7.25;3.47;;;;;;;-145.79;65.85;76843.16;5321458;28;20028;-77
2023/04/23 09:19:16;;;;;;;11.60;4.72;;;;;;;-145.79;64.52;76838.94;5326316;28;20020;-76
2023/04/23 09:21:47;;;;;;;8.25;2.65;;;;;;;-145.79;63.17;76824.09;5325575;28;20135;-76
2023/04/23 09:24:23;;;;;;;6.05;2.35;;;;;;;-145.79;62.96;76815.63;5326449;28;20098;-76
2023/04/23 09:26:59;;;;;;;8.65;2.30;;;;;;;-145.79;62.35;76785.94;5325698;27;20115;-79
2023/04/23 09:29:30;;;;;;;3.83;2.10;;;;;;;-145.79;62.00;76775.34;5325565;28;20022;-76
2023/04/23 09:32:09;;;;;;;6.07;2.50;;;;;;;-145.79;61.93;76762.63;5326049;28;20475;-76
2023/04/23 09:34:40;;;;;;;5.40;2.70;;;;;;;-145.79;60.45;76758.38;5325550;28;20019;-77
2023/04/23 09:37:12;;;;;;;5.45;2.30;;;;;;;-145.79;60.09;76747.78;5320398;28;20034;-76
2023/04/23 09:39:43;;;;;;;9.05;2.63;;;;;;;-145.79;60.37;76724.47;5325179;28;20053;-77
2023/04/23 09:42:14;;;;;;;3.83;1.90;;;;;;;-145.79;59.48;76716.00;5323625;28;20371;-76
2023/04/23 09:44:55;;;;;;;6.72;2.60;;;;;;;-145.79;59.86;76707.53;5321705;28;20108;-75
2023/04/23 09:47:27;;;;;;;4.25;2.22;;;;;;;-145.79;57.47;76705.41;5304074;28;20016;-77
2023/04/23 09:49:58;;;;;;;4.60;1.88;;;;;;;-145.79;58.19;76707.53;5301316;28;20519;-76
2023/04/23 09:52:31;;;;;;;7.38;2.53;;;;;;;-145.79;58.37;76720.25;5316929;28;20030;-75
2023/04/23 09:55:04;;;;;;;7.40;2.38;;;;;;;-145.79;58.48;76722.34;5325371;28;20020;-76
2023/04/23 09:57:37;;;;;;;4.65;2.10;;;;;;;-145.79;59.45;76716.00;5304918;28;20483;-76
2023/04/23 10:00:15;;;;;;;4.97;2.03;;;;;;;-145.79;59.37;76713.88;5312238;28;20026;-76
2023/04/23 10:02:50;;;;;;;6.63;2.63;;;;;;;-145.79;59.41;76722.34;5324915;28;20779;-76
2023/04/23 10:05:23;;;;;;;4.13;1.98;;;;;;;-145.79;59.84;76713.88;5325657;28;20476;-77
2023/04/23 10:07:58;;;;;;;6.70;2.00;;;;;;;-145.79;59.05;76711.75;5323940;28;20145;-77
2023/04/23 10:10:29;;;;;;;5.50;2.20;;;;;;;-145.79;59.74;76707.53;5323500;28;20027;-75
2023/04/23 10:13:01;;;;;;;5.78;3.53;;;;;;;-145.79;59.91;76707.53;5324142;28;20046;-75
2023/04/23 10:15:34;;;;;;;5.57;2.10;;;;;;;-145.79;60.81;76688.44;5323175;28;20109;-76
2023/04/23 10:18:06;;;;;;;2.80;1.75;;;;;;;-145.79;59.65;76686.34;5322184;27;20046;-75
2023/04/23 10:20:39;;;;;;;4.78;2.13;;;;;;;-145.79;59.04;76669.38;5323026;28;20740;-76
2023/04/23 10:23:11;;;;;;;4.80;2.53;;;;;;;-145.79;58.73;76665.16;5323113;28;20031;-75
2023/04/23 10:25:44;;;;;;;5.70;1.92;;;;;;;-145.79;58.67;76654.53;5322914;28;20426;-75
2023/04/23 10:28:20;;;;;;;8.02;2.47;;;;;;;-145.79;58.72;76652.44;5323286;28;20030;-75
2023/04/23 10:30:53;;;;;;;5.05;2.75;;;;;;;-145.79;59.31;76650.31;5322394;28;20046;-74
2023/04/23 10:33:25;;;;;;;5.55;2.15;;;;;;;-145.79;57.98;76654.53;5323123;28;20039;-74
2023/04/23 10:35:57;;;;;;;4.25;2.10;;;;;;;-145.79;58.56;76650.31;5322735;28;20100;-74
2023/04/23 10:38:28;;;;;;;4.78;2.35;;;;;;;-145.79;58.97;76656.66;5322575;28;20027;-74
2023/04/23 10:41:01;;;;;;;4.65;2.05;;;;;;;-145.79;59.44;76656.66;5323190;28;20106;-76
2023/04/23 10:43:32;;;;;;;4.70;1.90;;;;;;;-145.79;58.92;76658.78;5324399;28;20042;-76
2023/04/23 10:46:27;;;;;;;6.32;3.05;;;;;;;-145.79;58.52;76660.91;5324999;28;20466;-76
2023/04/23 10:49:15;;;;;;;4.40;2.22;;;;;;;-145.79;59.75;76643.94;5325421;28;20031;-75
2023/04/23 10:51:47;;;;;;;5.30;2.20;;;;;;;-145.79;59.41;76643.94;5324185;28;20035;-75
2023/04/23 10:54:18;;;;;;;5.53;2.15;;;;;;;-145.79;59.13;76627.00;5325198;28;20016;-75
2023/04/23 10:56:57;;;;;;;3.20;2.03;;;;;;;-145.79;59.07;76605.81;5324680;28;20020;-74
2023/04/23 10:59:31;;;;;;;4.63;2.33;;;;;;;-145.79;59.05;76599.44;5324062;28;20478;-75
2023/04/23 11:02:05;;;;;;;6.10;1.90;;;;;;;-145.79;59.15;76597.31;5324798;28;20035;-74
2023/04/23 11:04:53;;;;;;;7.53;2.80;;;;;;;-145.79;59.72;76588.84;5324475;28;20028;-74
2023/04/23 11:07:30;;;;;;;5.35;2.80;;;;;;;-145.79;58.90;76586.72;5319065;28;20352;-73
2023/04/23 11:10:13;;;;;;;6.10;2.45;;;;;;;-145.79;58.84;76584.59;5317563;28;20020;-75
2023/04/23 11:12:45;;;;;;;5.30;2.38;;;;;;;-145.79;58.75;76593.09;5324867;28;20088;-76
2023/04/23 11:15:18;;;;;;;3.70;1.98;;;;;;;-145.79;58.49;76593.09;5324312;28;20035;-75
2023/04/23 11:17:52;;;;;;;6.22;3.08;;;;;;;-145.79;57.44;76588.84;5325161;28;20027;-77
2023/04/23 11:20:23;;;;;;;2.88;1.77;;;;;;;-145.79;57.90;76590.97;5324111;28;20111;-77
2023/04/23 11:22:55;;;;;;;4.10;2.17;;;;;;;-145.79;58.45;76580.38;5325082;28;20094;-77
2023/04/23 11:25:27;;;;;;;3.97;2.10;;;;;;;-145.79;57.89;76576.13;5324972;28;20141;-77
2023/04/23 11:28:01;;;;;;;4.70;2.10;;;;;;;-145.79;58.10;76571.91;5324147;28;20393;-75
2023/04/23 11:30:32;;;;;;;4.68;1.77;;;;;;;-145.79;58.52;76574.00;5324670;28;20027;-74
2023/04/23 11:33:04;;;;;;;3.47;2.13;;;;;;;-145.79;59.76;76576.13;5324543;28;20039;-76
2023/04/23 11:35:39;;;;;;;5.35;2.40;;;;;;;-145.79;63.43;76599.44;5321330;28;20024;-76
2023/04/23 11:38:10;;;;;;;2.55;1.50;;;;;;;-145.79;59.08;76631.22;5302914;28;20336;-74
2023/04/23 11:40:45;;;;;;;2.60;1.50;;;;;;;-145.79;58.35;76643.94;5303097;28;20024;-77
2023/04/23 11:43:20;;;;;;;5.32;1.63;;;;;;;-145.79;60.77;76637.59;5309035;28;20024;-77
2023/04/23 11:45:51;;;;;;;3.88;1.73;;;;;;;-145.79;62.39;76639.72;5324780;28;20049;-77
2023/04/23 11:48:23;;;;;;;5.25;2.03;;;;;;;-145.79;64.50;76627.00;5324102;28;20102;-77
2023/04/23 11:50:54;;;;;;;3.95;2.03;;;;;;;-145.79;64.88;76618.53;5324961;28;20360;-77
2023/04/23 11:53:26;;;;;;;4.55;2.15;;;;;;;-145.79;65.18;76586.72;5325048;28;20028;-77
2023/04/23 11:56:00;;;;;;;6.53;2.50;;;;;;;-145.79;63.05;76563.41;5324103;28;20023;-77
2023/04/23 11:58:31;;;;;;;5.28;1.98;;;;;;;-145.79;61.97;76542.22;5324693;28;20023;-77
2023/04/23 12:01:02;;;;;;;5.88;2.05;;;;;;;-145.79;60.34;76527.38;5324794;28;20027;-76
2023/04/23 12:03:34;;;;;;;5.75;2.67;;;;;;;-145.79;59.00;76512.56;5323615;28;20032;-77
2023/04/23 12:06:05;;;;;;;4.90;1.88;;;;;;;-145.79;58.64;76482.88;5325483;28;20104;-78
2023/04/23 12:08:39;;;;;;;4.05;1.90;;;;;;;-145.79;55.90;76472.28;5328467;28;20130;-77
2023/04/23 12:11:10;;;;;;;3.92;1.60;;;;;;;-145.79;55.96;76453.22;5329528;28;20032;-77
2023/04/23 12:13:44;;;;;;;3.80;1.45;;;;;;;-145.79;55.53;76448.97;5330257;28;20031;-77
2023/04/23 12:16:15;;;;;;;3.65;1.75;;;;;;;-145.79;55.35;76440.50;5328249;28;20023;-76
2023/04/23 12:18:52;;;;;;;3.63;1.40;;;;;;;-145.79;55.08;76442.63;5329025;28;20031;-77
2023/04/23 12:21:24;;;;;;;6.25;2.15;;;;;;;-145.79;54.80;76440.50;5328028;28;20370;-77
2023/04/23 12:24:02;;;;;;;6.05;1.90;;;;;;;-145.79;53.47;76440.50;5327792;28;20040;-77
2023/04/23 12:26:36;;;;;;;11.73;9.30;;;;;;;-145.79;53.97;76440.50;5328442;28;20046;-77
2023/04/23 12:29:07;;;;;;;4.40;1.63;;;;;;;-145.79;52.78;76436.28;5328537;28;20020;-77
2023/04/23 12:31:39;;;;;;;6.45;1.90;;;;;;;-145.79;52.68;76432.03;5327655;28;20031;-76
2023/04/23 12:34:13;;;;;;;3.78;1.48;;;;;;;-145.79;52.76;76423.56;5328088;28;20035;-78
2023/04/23 12:36:50;;;;;;;5.07;1.67;;;;;;;-145.79;53.31;76415.06;5328088;28;20451;-77
2023/04/23 12:39:26;;;;;;;4.63;1.60;;;;;;;-145.79;53.88;76410.84;5326483;28;20103;-76
2023/04/23 12:42:08;;;;;;;7.30;1.70;;;;;;;-145.79;54.71;76406.59;5327077;28;20116;-76
2023/04/23 12:44:40;;;;;;;5.43;1.52;;;;;;;-145.79;54.42;76402.38;5326609;28;20020;-77
2023/04/23 12:47:13;;;;;;;5.45;1.70;;;;;;;-145.79;53.07;76393.88;5327595;28;20038;-76
2023/04/23 12:49:48;;;;;;;4.97;2.08;;;;;;;-145.79;53.24;76387.53;5327510;28;20035;-77
2023/04/23 12:52:19;;;;;;;3.97;1.67;;;;;;;-145.79;52.94;76381.16;5326181;28;20152;-77
2023/04/23 12:54:54;;;;;;;5.05;1.95;;;;;;;-145.79;52.62;76372.69;5327175;28;20517;-77
2023/04/23 12:57:26;;;;;;;4.65;1.92;;;;;;;-145.79;52.54;76362.09;5327346;27;20030;-77
2023/04/23 12:59:58;;;;;;;5.30;1.67;;;;;;;-145.79;52.47;76359.97;5326421;28;20019;-76
2023/04/23 13:02:30;;;;;;;3.65;2.00;;;;;;;-145.79;52.43;76343.03;5327081;28;20067;-76
2023/04/23 13:05:02;;;;;;;2.53;1.83;;;;;;;-145.79;52.11;76328.19;5327337;28;20443;-77
2023/04/23 13:07:34;;;;;;;3.78;1.63;;;;;;;-145.79;51.91;76307.00;5322469;28;20157;-76
2023/04/23 13:10:06;;;;;;;3.90;1.30;;;;;;;-145.79;50.49;76309.13;5328967;28;20106;-76
2023/04/23 13:12:38;;;;;;;3.38;1.98;;;;;;;-145.79;49.50;76307.00;5326912;28;20467;-76
2023/04/23 13:15:11;;;;;;;4.18;1.63;;;;;;;-145.79;49.40;76313.34;5327055;28;20024;-76
2023/04/23 13:17:44;;;;;;;3.47;1.67;;;;;;;-145.79;49.36;76309.13;5326937;28;20028;-76
2023/04/23 13:20:16;;;;;;;4.05;1.92;;;;;;;-145.79;49.53;76304.88;5325663;28;20073;-76
2023/04/23 13:22:53;;;;;;;3.20;1.58;;;;;;;-145.79;49.53;76309.13;5326903;28;20387;-76
2023/04/23 13:25:24;;;;;;;3.47;1.45;;;;;;;-145.79;50.02;76317.59;5326973;28;20490;-77
2023/04/23 13:27:55;;;;;;;4.13;1.75;;;;;;;-145.79;50.13;76315.47;5326111;28;20114;-76
2023/04/23 13:30:27;;;;;;;4.88;1.73;;;;;;;-145.79;49.58;76330.31;5326660;28;20028;-76
2023/04/23 13:32:58;;;;;;;4.70;1.85;;;;;;;-145.79;49.12;76330.31;5326614;28;20020;-76
2023/04/23 13:35:31;;;;;;;4.43;1.65;;;;;;;-145.79;48.27;76326.06;5325606;28;20500;-76
2023/04/23 13:38:03;;;;;;;2.58;1.77;;;;;;;-145.79;47.87;76338.78;5320876;28;20020;-76
2023/04/23 13:40:35;;;;;;;5.72;1.98;;;;;;;-145.79;47.69;76334.56;5304418;28;20715;-76
2023/04/23 13:43:06;;;;;;;4.50;1.70;;;;;;;-145.79;47.65;76351.50;5320215;28;20016;-75
2023/04/23 13:45:37;;;;;;;5.15;1.25;;;;;;;-145.79;48.16;76351.50;5326749;28;20030;-77
2023/04/23 13:48:09;;;;;;;6.18;2.95;;;;;;;-145.79;48.68;76353.63;5325848;28;20016;-76
2023/04/23 13:50:41;;;;;;;2.75;1.38;;;;;;;-145.79;49.54;76362.09;5326223;28;20026;-76
2023/04/23 13:53:12;;;;;;;3.85;2.03;;;;;;;-145.79;52.10;76368.47;5326665;28;20019;-76
2023/04/23 13:55:48;;;;;;;6.07;1.65;;;;;;;-145.79;52.42;76391.78;5325681;28;20026;-76
2023/04/23 13:58:19;;;;;;;5.68;1.92;;;;;;;-145.79;54.95;76398.13;5326429;28;20497;-76
2023/04/23 14:00:51;;;;;;;3.78;1.52;;;;;;;-145.79;56.02;76419.31;5325773;28;20027;-76
2023/04/23 14:03:22;;;;;;;6.70;1.80;;;;;;;-145.79;58.41;76436.28;5325402;28;20115;-76
2023/04/23 14:05:54;;;;;;;4.50;1.70;;;;;;;-145.79;60.47;76451.09;5326436;28;20057;-77
2023/04/23 14:08:25;;;;;;;5.30;1.55;;;;;;;-145.79;61.60;76470.19;5326272;28;20103;-76
2023/04/23 14:10:57;;;;;;;3.83;1.60;;;;;;;-145.79;63.77;76493.50;5325409;28;20477;-76
2023/04/23 14:13:30;;;;;;;6.70;1.85;;;;;;;-145.79;65.46;76518.91;5325939;27;20042;-76
2023/04/23 14:16:01;;;;;;;5.97;2.03;;;;;;;-145.79;67.81;76533.75;5324710;28;20049;-77
2023/04/23 14:18:32;;;;;;;3.28;1.75;;;;;;;-145.79;69.33;76559.19;5325846;28;20447;-76
2023/04/23 14:21:04;;;;;;;5.35;2.95;;;;;;;-145.79;70.82;76597.31;5325519;28;20044;-76
2023/04/23 14:23:44;;;;;;;5.20;2.08;;;;;;;-145.79;74.44;76624.88;5324983;28;20034;-75
2023/04/23 14:26:30;;;;;;;6.18;2.50;;;;;;;-145.79;76.75;76654.53;5325735;28;20455;-76
2023/04/23 14:29:08;;;;;;;4.90;3.03;;;;;;;-145.79;78.56;76671.50;5325414;28;20382;-76
2023/04/23 14:31:39;;;;;;;8.43;2.65;;;;;;;-145.79;80.03;76703.28;5324466;28;20023;-77
2023/04/23 14:34:11;;;;;;;4.43;2.53;;;;;;;-145.79;81.42;76726.59;5325025;28;20023;-77
2023/04/23 14:36:43;;;;;;;7.88;2.95;;;;;;;-145.79;82.40;76724.47;5325294;28;20027;-77
2023/04/23 14:39:14;;;;;;;4.25;2.28;;;;;;;-145.79;83.16;76728.72;5308853;28;20046;-77
2023/04/23 14:41:46;;;;;;;6.95;3.08;;;;;;;-145.79;83.75;76711.75;5303851;28;20024;-77
2023/04/23 14:44:17;;;;;;;6.60;2.67;;;;;;;-145.79;83.85;76694.81;5302838;28;20024;-75
2023/04/23 14:46:49;;;;;;;6.50;3.08;;;;;;;-145.79;84.65;76694.81;5303955;28;20074;-76
2023/04/23 14:49:24;;;;;;;5.75;2.83;;;;;;;-145.79;83.30;76711.75;5303956;28;20035;-76
2023/04/23 14:51:56;;;;;;;4.55;2.63;;;;;;;-145.79;84.82;76684.22;5324308;28;20131;-76
2023/04/23 14:54:28;;;;;;;5.72;3.05;;;;;;;-145.79;85.77;76677.84;5325071;28;20466;-76
2023/04/23 14:56:59;;;;;;;6.15;2.70;;;;;;;-145.79;84.87;76675.75;5324758;28;20030;-76
2023/04/23 14:59:30;;;;;;;8.15;2.63;;;;;;;-145.79;84.58;76682.09;5324197;28;20050;-77
2023/04/23 15:02:02;;;;;;;10.60;3.72;;;;;;;-145.79;85.03;76660.91;5324747;28;20027;-77
2023/04/23 15:04:33;;;;;;;5.80;3.13;;;;;;;-145.79;84.55;76665.16;5324916;28;20020;-77
2023/04/23 15:07:05;;;;;;;5.45;3.17;;;;;;;-145.79;84.98;76652.44;5323986;28;20068;-77
2023/04/23 15:09:36;;;;;;;6.32;2.90;;;;;;;-145.79;85.58;76660.91;5318655;28;20569;-78
2023/04/23 15:12:45;;;;;;;5.65;2.65;;;;;;;-145.79;84.55;76650.31;5302814;28;20468;-77
2023/04/23 15:15:21;;;;;;;5.25;2.70;;;;;;;-145.79;84.94;76658.78;5302824;28;20043;-77
2023/04/23 15:17:53;;;;;;;4.40;2.35;;;;;;;-145.79;85.61;76643.94;5303932;28;20024;-85
2023/04/23 15:20:24;;;;;;;7.80;2.90;;;;;;;-145.79;86.30;76639.72;5303245;28;20085;-83
2023/04/23 15:22:56;;;;;;;7.05;4.43;;;;;;;-145.79;85.44;76639.72;5304236;28;20028;-83
2023/04/23 15:25:28;;;;;;;6.90;3.13;;;;;;;-145.79;86.15;76631.22;5321214;28;20028;-83
2023/04/23 15:28:00;;;;;;;6.57;4.28;;;;;;;-145.79;86.19;76618.53;5325284;28;20031;-83
2023/04/23 15:30:31;;;;;;;6.10;3.00;;;;;;;-145.79;86.00;76622.75;5325296;28;20027;-82
2023/04/23 15:33:03;;;;;;;5.07;2.95;;;;;;;-145.79;86.32;76624.88;5325610;28;20024;-82
2023/04/23 15:35:34;;;;;;;8.55;3.00;;;;;;;-145.79;86.17;76622.75;5325449;28;20048;-77
2023/04/23 15:38:05;;;;;;;6.38;3.00;;;;;;;-145.79;86.25;76607.91;5325037;28;20024;-78
2023/04/23 15:40:40;;;;;;;3.25;2.15;;;;;;;-145.79;85.79;76599.44;5317115;28;20076;-78
2023/04/23 15:43:15;;;;;;;5.72;2.47;;;;;;;-145.79;86.85;76588.84;5327078;28;20035;-76
2023/04/23 15:45:48;;;;;;;9.60;3.83;;;;;;;-145.79;87.00;76595.22;5329258;28;20030;-78
2023/04/23 15:48:20;;;;;;;6.15;3.20;;;;;;;-145.79;87.02;76590.97;5328518;28;20045;-78
2023/04/23 15:50:52;;;;;;;6.63;3.92;;;;;;;-145.79;87.19;76574.00;5329063;28;20381;-78
2023/04/23 15:53:23;;;;;;;6.68;3.30;;;;;;;-145.79;87.65;76576.13;5329329;27;20016;-78
2023/04/23 15:55:55;;;;;;;6.95;3.30;;;;;;;-145.79;87.24;76571.91;5327817;28;20096;-77
2023/04/23 15:58:26;;;;;;;4.45;2.72;;;;;;;-145.79;86.53;76567.66;5328425;28;20020;-77
2023/04/23 16:00:57;;;;;;;6.15;3.50;;;;;;;-145.79;87.31;76559.19;5328679;28;20024;-76
2023/04/23 16:03:28;;;;;;;4.90;3.42;;;;;;;-145.79;87.26;76561.28;5328137;28;20102;-77
2023/04/23 16:06:00;;;;;;;4.50;3.17;;;;;;;-145.79;87.33;76550.69;5329040;28;20093;-77
2023/04/23 16:08:31;;;;;;;5.47;2.80;;;;;;;-145.79;87.17;76550.69;5327768;28;20053;-71
2023/04/23 16:11:03;;;;;;;6.78;3.50;;;;;;;-145.79;87.25;76538.00;5309969;28;20028;-71
2023/04/23 16:13:35;;;;;;;4.95;3.33;;;;;;;-145.79;87.68;76535.88;5307425;28;20055;-71
2023/04/23 16:16:06;;;;;;;5.28;3.33;;;;;;;-145.79;88.41;76512.56;5321130;28;20028;-72
2023/04/23 16:18:40;;;;;;;3.60;3.20;;;;;;;-145.79;87.85;76516.78;5328233;28;20016;-71
2023/04/23 16:21:11;;;;;;;4.72;2.83;;;;;;;-145.79;88.20;76506.19;5328059;27;20079;-71
2023/04/23 16:23:43;;;;;;;6.15;3.30;;;;;;;-145.79;87.83;76501.97;5327565;28;20070;-71
2023/04/23 16:26:14;;;;;;;7.47;3.60;;;;;;;-145.79;87.51;76495.59;5328608;28;20413;-71
2023/04/23 16:28:45;;;;;;;6.22;3.70;;;;;;;-145.79;87.30;76485.00;5328142;28;20100;-71
2023/04/23 16:31:17;;;;;;;6.47;3.78;;;;;;;-145.79;87.54;76495.59;5327465;28;20019;-78
2023/04/23 16:33:48;;;;;;;3.83;2.65;;;;;;;-145.79;87.08;76495.59;5328208;28;20027;-78
2023/04/23 16:36:20;;;;;;;6.68;3.55;;;;;;;-145.79;87.31;76495.59;5327942;28;20016;-78
2023/04/23 16:38:52;;;;;;;3.88;2.50;;;;;;;-145.79;87.07;76499.84;5327874;28;20536;-78
2023/04/23 16:41:23;;;;;;;4.78;2.35;;;;;;;-145.79;86.78;76493.50;5327819;28;20141;-79
2023/04/23 16:43:54;;;;;;;2.97;2.42;;;;;;;-145.79;87.37;76482.88;5327746;28;20024;-78
2023/04/23 16:46:28;;;;;;;4.63;3.17;;;;;;;-145.79;87.87;76478.66;5328395;28;20370;-77
2023/04/23 16:49:00;;;;;;;4.22;3.47;;;;;;;-145.79;87.60;76489.25;5328218;28;20011;-78
2023/04/23 16:51:32;;;;;;;5.32;2.75;;;;;;;-145.79;87.60;76482.88;5327677;28;20094;-79
2023/04/23 16:54:04;;;;;;;4.50;2.65;;;;;;;-145.79;88.00;76482.88;5327523;28;20114;-77
